Time;durP1;ratioP1;P1;durP2;ratioP2;P2;SDS_P1;SDS_P2;PMS_P1;PMS_P2;Temp;Humidity;BMP_temperature;BMP_pressure;BME280_temperature;BME280_humidity;BME280_pressure;Samples;Min_cycle;Max_cycle;Signal;HPM_P1;HPM_P2
2022/12/01 00:00:04;;;;;;;20.73;13.60;;;;;;;;;;520805;28;1796;-61
2022/12/01 00:00:19;;;;;;;21.40;13.70;;;;;;;;;;520294;28;1450;-61
2022/12/01 00:00:34;;;;;;;21.47;13.70;;;;;;;;;;517912;28;1110;-61
2022/12/01 00:00:54;;;;;;;20.60;13.30;;;;;;;;;;518894;28;1441;-61
2022/12/01 00:01:10;;;;;;;20.13;13.30;;;;;;;;;;519043;28;1534;-61
2022/12/01 00:01:25;;;;;;;20.48;13.77;;;;;;;;;;518408;28;1181;-61
2022/12/01 00:01:40;;;;;;;18.57;13.20;;;;;;;;;;518710;28;1901;-61
2022/12/01 00:01:55;;;;;;;19.17;13.07;;;;;;;;;;518178;28;1480;-61
2022/12/01 00:02:11;;;;;;;20.77;13.35;;;;;;;;;;519349;28;1185;-61
2022/12/01 00:02:28;;;;;;;19.80;13.07;;;;;;;;;;517185;28;1383;-61
2022/12/01 00:02:43;;;;;;;18.77;13.13;;;;;;;;;;516679;28;1126;-61
2022/12/01 00:02:58;;;;;;;18.57;13.07;;;;;;;;;;519132;28;1423;-61
2022/12/01 00:03:14;;;;;;;19.20;13.10;;;;;;;;;;518030;28;1538;-61
2022/12/01 00:03:30;;;;;;;19.15;13.02;;;;;;;;;;519556;28;1439;-61
2022/12/01 00:03:46;;;;;;;18.77;12.90;;;;;;;;;;519295;28;1251;-61
2022/12/01 00:04:01;;;;;;;18.92;12.90;;;;;;;;;;519182;28;1466;-61
2022/12/01 00:04:16;;;;;;;18.70;13.03;;;;;;;;;;520780;28;1369;-61
2022/12/01 00:04:31;;;;;;;18.27;12.90;;;;;;;;;;522628;28;1395;-61
2022/12/01 00:04:48;;;;;;;19.65;13.40;;;;;;;;;;520649;28;1669;-61
2022/12/01 00:05:03;;;;;;;19.73;13.27;;;;;;;;;;520038;28;1267;-62
2022/12/01 00:05:19;;;;;;;18.37;12.63;;;;;;;;;;522941;28;1407;-61
2022/12/01 00:05:34;;;;;;;19.85;13.15;;;;;;;;;;521784;28;1315;-61
2022/12/01 00:06:01;;;;;;;20.50;13.23;;;;;;;;;;523384;28;1426;-61
2022/12/01 00:06:19;;;;;;;17.77;12.73;;;;;;;;;;523808;28;1288;-61
2022/12/01 00:06:35;;;;;;;18.42;12.88;;;;;;;;;;523282;28;1375;-61
2022/12/01 00:06:50;;;;;;;18.80;13.05;;;;;;;;;;523119;28;1236;-61
2022/12/01 00:07:06;;;;;;;17.93;12.47;;;;;;;;;;523518;28;1415;-61
2022/12/01 00:07:21;;;;;;;18.70;12.83;;;;;;;;;;525099;28;1195;-61
2022/12/01 00:07:36;;;;;;;20.07;13.60;;;;;;;;;;519332;28;1271;-61
2022/12/01 00:07:51;;;;;;;18.10;13.38;;;;;;;;;;521515;28;1395;-61
2022/12/01 00:08:07;;;;;;;18.07;13.23;;;;;;;;;;521424;28;1395;-61
2022/12/01 00:08:22;;;;;;;19.53;13.30;;;;;;;;;;522788;28;1304;-61
2022/12/01 00:08:37;;;;;;;19.00;13.45;;;;;;;;;;521203;28;1445;-61
2022/12/01 00:10:35;;;;;;;18.90;12.80;;;;;;;;;;521939;28;1191;-61
2022/12/01 00:10:50;;;;;;;18.98;12.43;;;;;;;;;;522533;27;1462;-61
2022/12/01 00:11:13;;;;;;;20.10;12.97;;;;;;;;;;522079;28;1382;-61
2022/12/01 00:11:28;;;;;;;19.48;13.15;;;;;;;;;;518534;28;1323;-61
2022/12/01 00:11:44;;;;;;;19.13;12.93;;;;;;;;;;521595;28;1335;-61
2022/12/01 00:11:59;;;;;;;21.20;12.83;;;;;;;;;;522221;28;1383;-61
2022/12/01 00:12:14;;;;;;;21.20;12.85;;;;;;;;;;519486;28;1727;-61
2022/12/01 00:12:30;;;;;;;18.47;12.53;;;;;;;;;;521961;28;1559;-61
2022/12/01 00:12:45;;;;;;;17.70;12.55;;;;;;;;;;518535;28;1252;-61
2022/12/01 00:13:03;;;;;;;18.70;13.00;;;;;;;;;;520816;28;2007;-62
2022/12/01 00:13:19;;;;;;;19.13;12.77;;;;;;;;;;522748;28;1517;-61
2022/12/01 00:13:35;;;;;;;17.58;12.25;;;;;;;;;;519356;28;1214;-61
2022/12/01 00:13:50;;;;;;;18.30;12.50;;;;;;;;;;519372;28;1171;-61
2022/12/01 00:14:06;;;;;;;19.40;12.63;;;;;;;;;;520375;28;1310;-61
2022/12/01 00:14:21;;;;;;;19.55;12.20;;;;;;;;;;523003;28;1414;-63
2022/12/01 00:14:37;;;;;;;18.57;12.17;;;;;;;;;;522185;28;2049;-61
2022/12/01 00:14:53;;;;;;;16.90;11.98;;;;;;;;;;520439;28;1290;-63
2022/12/01 00:15:10;;;;;;;16.55;11.73;;;;;;;;;;520853;28;1388;-61
2022/12/01 00:15:27;;;;;;;18.02;11.82;;;;;;;;;;520412;28;1349;-61
2022/12/01 00:15:42;;;;;;;18.00;11.90;;;;;;;;;;520412;28;1236;-61
2022/12/01 00:16:08;;;;;;;17.20;12.30;;;;;;;;;;520324;28;1216;-61
2022/12/01 00:16:23;;;;;;;18.02;12.27;;;;;;;;;;519914;28;1310;-61
2022/12/01 00:16:39;;;;;;;17.25;11.93;;;;;;;;;;520456;28;1538;-61
2022/12/01 00:16:55;;;;;;;18.08;12.20;;;;;;;;;;519680;28;1673;-61
2022/12/01 00:17:10;;;;;;;19.13;12.60;;;;;;;;;;520052;28;1327;-61
2022/12/01 00:17:29;;;;;;;18.80;12.80;;;;;;;;;;517650;28;1248;-61
2022/12/01 00:17:44;;;;;;;19.13;12.93;;;;;;;;;;519217;28;1537;-61
2022/12/01 00:18:01;;;;;;;19.73;12.87;;;;;;;;;;517970;28;1353;-61
2022/12/01 00:18:16;;;;;;;19.38;12.68;;;;;;;;;;517687;28;1175;-61
2022/12/01 00:18:31;;;;;;;19.30;12.43;;;;;;;;;;519857;28;1233;-61
2022/12/01 00:18:51;;;;;;;18.92;12.50;;;;;;;;;;518161;28;1426;-61
2022/12/01 00:19:07;;;;;;;19.85;12.68;;;;;;;;;;518825;28;1267;-61
2022/12/01 00:19:26;;;;;;;19.13;12.48;;;;;;;;;;518506;28;1575;-61
2022/12/01 00:19:41;;;;;;;16.90;11.98;;;;;;;;;;519998;28;1356;-61
2022/12/01 00:19:56;;;;;;;18.42;12.23;;;;;;;;;;519046;28;1440;-61
2022/12/01 00:20:13;;;;;;;19.20;12.47;;;;;;;;;;517918;28;1121;-62
2022/12/01 00:20:28;;;;;;;18.00;12.18;;;;;;;;;;519971;28;1489;-61
2022/12/01 00:20:44;;;;;;;18.65;12.30;;;;;;;;;;522880;28;1431;-61
2022/12/01 00:20:59;;;;;;;19.03;12.57;;;;;;;;;;521761;28;1795;-61
2022/12/01 00:21:19;;;;;;;18.02;12.25;;;;;;;;;;521277;28;1140;-61
2022/12/01 00:21:34;;;;;;;17.73;12.18;;;;;;;;;;521873;28;1399;-61
2022/12/01 00:21:50;;;;;;;19.52;12.85;;;;;;;;;;523478;28;1498;-61
2022/12/01 00:22:05;;;;;;;22.17;13.23;;;;;;;;;;520417;28;1191;-62
2022/12/01 00:22:20;;;;;;;22.97;13.60;;;;;;;;;;521608;28;1302;-61
2022/12/01 00:22:36;;;;;;;21.25;13.90;;;;;;;;;;523841;27;1822;-61
2022/12/01 00:22:51;;;;;;;21.17;13.70;;;;;;;;;;523247;28;1299;-61
2022/12/01 00:23:06;;;;;;;20.63;13.13;;;;;;;;;;523312;28;1348;-61
2022/12/01 00:23:22;;;;;;;20.17;13.00;;;;;;;;;;523245;27;1132;-61
2022/12/01 00:23:37;;;;;;;20.63;12.77;;;;;;;;;;523287;28;1403;-61
2022/12/01 00:23:54;;;;;;;19.77;12.40;;;;;;;;;;520709;28;1299;-62
2022/12/01 00:24:11;;;;;;;18.33;12.57;;;;;;;;;;522852;28;1550;-61
2022/12/01 00:24:26;;;;;;;18.70;12.73;;;;;;;;;;519916;28;1379;-61
2022/12/01 00:24:41;;;;;;;18.88;12.23;;;;;;;;;;520642;28;1200;-61
2022/12/01 00:24:56;;;;;;;19.03;12.17;;;;;;;;;;520498;28;1240;-61
2022/12/01 00:25:14;;;;;;;19.17;12.53;;;;;;;;;;521215;28;1241;-61
2022/12/01 00:25:30;;;;;;;20.20;12.63;;;;;;;;;;520326;28;1515;-62
2022/12/01 00:25:46;;;;;;;19.67;12.63;;;;;;;;;;518858;28;1792;-61
2022/12/01 00:26:04;;;;;;;20.53;13.17;;;;;;;;;;517633;28;1195;-61
2022/12/01 00:26:20;;;;;;;19.17;12.57;;;;;;;;;;516960;28;1236;-61
2022/12/01 00:26:36;;;;;;;18.23;12.63;;;;;;;;;;518772;28;1452;-61
2022/12/01 00:26:52;;;;;;;18.05;12.93;;;;;;;;;;518606;28;1176;-61
2022/12/01 00:27:07;;;;;;;19.05;12.82;;;;;;;;;;518009;28;1157;-61
2022/12/01 00:27:22;;;;;;;18.90;12.77;;;;;;;;;;519645;28;1655;-61
2022/12/01 00:27:38;;;;;;;19.13;12.90;;;;;;;;;;519202;28;1209;-61
2022/12/01 00:27:54;;;;;;;19.50;13.38;;;;;;;;;;522592;28;1740;-61
2022/12/01 00:28:10;;;;;;;20.05;13.30;;;;;;;;;;523891;28;1207;-61
2022/12/01 00:28:25;;;;;;;20.13;12.93;;;;;;;;;;523598;28;1363;-61
2022/12/01 00:28:40;;;;;;;20.10;13.07;;;;;;;;;;520588;28;1407;-61
2022/12/01 00:28:58;;;;;;;19.93;12.97;;;;;;;;;;522839;28;3165;-61
2022/12/01 00:29:13;;;;;;;18.60;12.57;;;;;;;;;;521361;28;1234;-61
2022/12/01 00:29:28;;;;;;;17.87;12.27;;;;;;;;;;521627;28;1225;-61
2022/12/01 00:29:45;;;;;;;17.73;12.43;;;;;;;;;;521946;28;1213;-61
2022/12/01 00:30:00;;;;;;;19.35;12.93;;;;;;;;;;522420;28;1984;-61
2022/12/01 00:30:17;;;;;;;19.33;13.13;;;;;;;;;;520330;28;1184;-61
2022/12/01 00:30:32;;;;;;;18.13;12.95;;;;;;;;;;521297;28;1630;-62
2022/12/01 00:30:48;;;;;;;18.08;12.57;;;;;;;;;;521512;28;1285;-61
2022/12/01 00:31:10;;;;;;;19.40;12.80;;;;;;;;;;521510;28;1254;-62
2022/12/01 00:31:26;;;;;;;17.75;12.57;;;;;;;;;;520089;28;1090;-61
2022/12/01 00:31:41;;;;;;;18.37;12.83;;;;;;;;;;521987;28;1352;-61
2022/12/01 00:31:57;;;;;;;18.73;12.73;;;;;;;;;;521701;28;1283;-61
2022/12/01 00:32:13;;;;;;;18.33;12.40;;;;;;;;;;521672;28;2266;-61
2022/12/01 00:32:29;;;;;;;17.92;12.20;;;;;;;;;;523243;28;1383;-62
2022/12/01 00:32:45;;;;;;;18.58;12.25;;;;;;;;;;522036;28;1741;-61
2022/12/01 00:33:01;;;;;;;18.95;12.63;;;;;;;;;;521513;28;1173;-61
2022/12/01 00:33:16;;;;;;;18.43;12.67;;;;;;;;;;519012;28;1513;-61
2022/12/01 00:33:31;;;;;;;20.57;13.23;;;;;;;;;;519273;28;1345;-61
2022/12/01 00:33:46;;;;;;;21.03;13.77;;;;;;;;;;519195;28;1768;-61
2022/12/01 00:34:02;;;;;;;20.73;13.53;;;;;;;;;;520504;28;1289;-61
2022/12/01 00:34:24;;;;;;;21.53;13.47;;;;;;;;;;520525;28;1181;-61
2022/12/01 00:34:39;;;;;;;22.92;13.90;;;;;;;;;;519565;28;2256;-61
2022/12/01 00:34:55;;;;;;;21.17;13.68;;;;;;;;;;519953;28;1309;-61
2022/12/01 00:35:11;;;;;;;19.17;12.77;;;;;;;;;;517851;28;1323;-61
2022/12/01 00:35:26;;;;;;;18.25;12.55;;;;;;;;;;518656;28;2119;-61
2022/12/01 00:35:41;;;;;;;20.67;13.07;;;;;;;;;;515926;28;1335;-61
2022/12/01 00:35:58;;;;;;;21.70;13.10;;;;;;;;;;517080;28;1373;-61
2022/12/01 00:36:14;;;;;;;18.70;12.70;;;;;;;;;;515999;28;1123;-61
2022/12/01 00:36:29;;;;;;;18.00;12.77;;;;;;;;;;519097;28;1201;-61
2022/12/01 00:36:44;;;;;;;18.53;12.90;;;;;;;;;;518728;28;1157;-61
2022/12/01 00:36:59;;;;;;;18.67;12.68;;;;;;;;;;518168;28;2042;-61
2022/12/01 00:37:15;;;;;;;18.93;12.63;;;;;;;;;;517869;28;1270;-61
2022/12/01 00:37:32;;;;;;;19.00;12.63;;;;;;;;;;518539;28;1135;-61
2022/12/01 00:37:47;;;;;;;17.80;12.27;;;;;;;;;;519128;28;1102;-61
2022/12/01 00:38:02;;;;;;;18.15;12.13;;;;;;;;;;521553;28;1196;-61
2022/12/01 00:38:18;;;;;;;19.40;12.63;;;;;;;;;;522025;28;1426;-61
2022/12/01 00:38:33;;;;;;;19.23;13.17;;;;;;;;;;522317;28;1375;-61
2022/12/01 00:38:53;;;;;;;18.40;12.73;;;;;;;;;;519225;28;1345;-61
2022/12/01 00:39:09;;;;;;;18.85;12.57;;;;;;;;;;520230;28;1369;-61
2022/12/01 00:39:24;;;;;;;20.23;12.97;;;;;;;;;;520271;28;1286;-61
2022/12/01 00:39:39;;;;;;;18.90;12.65;;;;;;;;;;519208;28;1169;-61
2022/12/01 00:39:54;;;;;;;17.17;11.93;;;;;;;;;;520234;28;1355;-61
2022/12/01 00:40:10;;;;;;;17.23;11.80;;;;;;;;;;519668;28;1698;-61
2022/12/01 00:40:25;;;;;;;17.80;12.18;;;;;;;;;;519934;28;1471;-61
2022/12/01 00:40:41;;;;;;;17.97;12.53;;;;;;;;;;519321;28;1292;-61
2022/12/01 00:40:56;;;;;;;18.85;13.20;;;;;;;;;;518512;28;1281;-61
2022/12/01 00:41:12;;;;;;;20.07;13.20;;;;;;;;;;518296;28;1348;-61
2022/12/01 00:41:27;;;;;;;20.08;13.05;;;;;;;;;;519394;28;1399;-61
2022/12/01 00:41:43;;;;;;;19.87;12.87;;;;;;;;;;520059;28;1714;-61
2022/12/01 00:41:58;;;;;;;19.58;12.25;;;;;;;;;;518569;28;1166;-61
2022/12/01 00:42:13;;;;;;;18.77;12.57;;;;;;;;;;515956;28;1323;-61
2022/12/01 00:42:28;;;;;;;19.50;13.10;;;;;;;;;;516481;28;1197;-61
2022/12/01 00:42:44;;;;;;;19.37;12.77;;;;;;;;;;517447;28;1685;-62
2022/12/01 00:42:59;;;;;;;19.45;12.27;;;;;;;;;;515000;28;1394;-61
2022/12/01 00:43:14;;;;;;;21.03;12.40;;;;;;;;;;518950;28;1793;-61
2022/12/01 00:43:30;;;;;;;19.80;12.63;;;;;;;;;;514374;28;1305;-61
2022/12/01 00:43:45;;;;;;;18.98;13.10;;;;;;;;;;515121;28;1279;-61
2022/12/01 00:44:01;;;;;;;18.57;13.17;;;;;;;;;;514116;28;1324;-61
2022/12/01 00:44:16;;;;;;;18.15;12.90;;;;;;;;;;517053;28;1441;-61
2022/12/01 00:44:31;;;;;;;19.20;13.03;;;;;;;;;;516645;28;1433;-61
2022/12/01 00:44:47;;;;;;;19.23;13.03;;;;;;;;;;516686;28;1102;-61
2022/12/01 00:45:03;;;;;;;18.23;12.65;;;;;;;;;;518571;28;1843;-61
2022/12/01 00:45:18;;;;;;;19.58;12.75;;;;;;;;;;520625;28;1602;-62
2022/12/01 00:45:33;;;;;;;20.93;13.17;;;;;;;;;;520209;28;1391;-61
2022/12/01 00:45:48;;;;;;;19.93;12.80;;;;;;;;;;520326;28;1368;-62
2022/12/01 00:46:04;;;;;;;20.33;12.77;;;;;;;;;;517625;28;1400;-61
2022/12/01 00:46:19;;;;;;;20.20;13.00;;;;;;;;;;518033;28;1204;-61
2022/12/01 00:46:35;;;;;;;18.17;12.70;;;;;;;;;;517214;28;1989;-61
2022/12/01 00:46:50;;;;;;;19.07;12.70;;;;;;;;;;517851;28;1451;-61
2022/12/01 00:47:05;;;;;;;20.00;12.60;;;;;;;;;;515910;28;1207;-61
2022/12/01 00:47:20;;;;;;;19.10;12.60;;;;;;;;;;514508;28;1147;-61
2022/12/01 00:47:36;;;;;;;18.60;12.90;;;;;;;;;;515635;28;1143;-61
2022/12/01 00:47:51;;;;;;;18.93;13.07;;;;;;;;;;516000;28;1413;-61
2022/12/01 00:48:06;;;;;;;19.50;13.23;;;;;;;;;;513116;28;1762;-61
2022/12/01 00:48:22;;;;;;;19.02;12.93;;;;;;;;;;515693;28;1380;-61
2022/12/01 00:48:37;;;;;;;19.17;12.53;;;;;;;;;;515392;28;1057;-61
2022/12/01 00:48:53;;;;;;;19.30;12.55;;;;;;;;;;517541;28;1341;-61
2022/12/01 00:49:11;;;;;;;19.60;12.70;;;;;;;;;;520762;28;1382;-61
2022/12/01 00:49:26;;;;;;;20.48;13.15;;;;;;;;;;521290;28;1117;-61
2022/12/01 00:49:44;;;;;;;19.83;13.47;;;;;;;;;;518337;28;1226;-61
2022/12/01 00:49:59;;;;;;;19.52;13.45;;;;;;;;;;518662;28;994;-61
2022/12/01 00:50:14;;;;;;;19.90;13.40;;;;;;;;;;518943;28;1194;-61
2022/12/01 00:50:30;;;;;;;19.88;13.25;;;;;;;;;;518266;28;1243;-61
2022/12/01 00:50:45;;;;;;;20.07;13.10;;;;;;;;;;515395;28;1540;-61
2022/12/01 00:51:00;;;;;;;19.73;13.07;;;;;;;;;;517591;28;1237;-61
2022/12/01 00:51:16;;;;;;;20.63;13.25;;;;;;;;;;516662;28;1789;-61
2022/12/01 00:51:31;;;;;;;20.83;13.27;;;;;;;;;;514264;28;1036;-61
2022/12/01 00:51:47;;;;;;;20.10;13.10;;;;;;;;;;517981;28;1255;-61
2022/12/01 00:52:02;;;;;;;19.83;12.67;;;;;;;;;;515601;28;1176;-61
2022/12/01 00:52:18;;;;;;;20.03;13.23;;;;;;;;;;516492;28;1241;-62
2022/12/01 00:52:33;;;;;;;19.98;13.52;;;;;;;;;;516819;28;1050;-62
2022/12/01 00:52:49;;;;;;;18.40;13.03;;;;;;;;;;518456;28;1193;-61
2022/12/01 00:53:04;;;;;;;18.77;13.03;;;;;;;;;;519636;28;1131;-61
2022/12/01 00:53:20;;;;;;;19.45;12.77;;;;;;;;;;513518;28;1291;-61
2022/12/01 00:53:35;;;;;;;19.45;12.57;;;;;;;;;;518254;28;1358;-62
2022/12/01 00:53:51;;;;;;;19.73;13.23;;;;;;;;;;519210;28;1213;-61
2022/12/01 00:54:06;;;;;;;21.20;13.87;;;;;;;;;;520844;28;1176;-61
2022/12/01 00:54:21;;;;;;;21.08;13.75;;;;;;;;;;518980;28;1211;-61
2022/12/01 00:54:37;;;;;;;19.70;13.20;;;;;;;;;;514765;28;1187;-61
2022/12/01 00:54:52;;;;;;;19.52;13.27;;;;;;;;;;518133;28;1226;-61
2022/12/01 00:55:07;;;;;;;19.27;13.33;;;;;;;;;;518277;28;1396;-61
2022/12/01 00:55:23;;;;;;;20.17;13.27;;;;;;;;;;521403;28;1187;-61
2022/12/01 00:55:39;;;;;;;20.23;13.43;;;;;;;;;;523406;28;1210;-61
2022/12/01 00:55:54;;;;;;;19.77;13.50;;;;;;;;;;517287;28;1034;-61
2022/12/01 00:56:09;;;;;;;21.10;13.37;;;;;;;;;;522829;28;1216;-61
2022/12/01 00:56:25;;;;;;;20.93;13.57;;;;;;;;;;522333;28;1938;-61
2022/12/01 00:56:40;;;;;;;19.60;13.40;;;;;;;;;;523936;28;1234;-61
2022/12/01 00:56:55;;;;;;;20.53;13.70;;;;;;;;;;522711;28;1025;-61
2022/12/01 00:57:11;;;;;;;21.70;14.13;;;;;;;;;;521148;28;1279;-61
2022/12/01 00:57:26;;;;;;;19.85;13.75;;;;;;;;;;521296;28;1090;-61
2022/12/01 00:57:41;;;;;;;19.07;13.57;;;;;;;;;;518581;28;1246;-61
2022/12/01 00:57:56;;;;;;;19.47;13.60;;;;;;;;;;519490;28;1212;-61
2022/12/01 00:58:12;;;;;;;19.83;14.00;;;;;;;;;;518501;28;1320;-61
2022/12/01 00:58:27;;;;;;;20.27;13.88;;;;;;;;;;513760;28;1253;-61
2022/12/01 00:58:42;;;;;;;20.70;13.70;;;;;;;;;;517887;28;1025;-61
2022/12/01 00:58:58;;;;;;;20.67;13.98;;;;;;;;;;513853;28;1311;-61
2022/12/01 00:59:13;;;;;;;20.60;13.50;;;;;;;;;;518631;28;1082;-61
2022/12/01 00:59:28;;;;;;;20.17;13.13;;;;;;;;;;518271;28;1202;-61
2022/12/01 00:59:44;;;;;;;19.53;13.47;;;;;;;;;;514866;28;1332;-61
2022/12/01 00:59:59;;;;;;;20.75;13.65;;;;;;;;;;519925;28;1404;-61
2022/12/01 01:00:16;;;;;;;20.30;13.43;;;;;;;;;;523295;28;1016;-61
2022/12/01 01:00:31;;;;;;;20.00;13.05;;;;;;;;;;524867;28;1121;-61
2022/12/01 01:00:46;;;;;;;20.77;13.17;;;;;;;;;;519736;28;1552;-61
2022/12/01 01:01:02;;;;;;;20.40;13.40;;;;;;;;;;523745;27;1157;-61
2022/12/01 01:01:17;;;;;;;19.95;13.13;;;;;;;;;;525886;27;1204;-61
2022/12/01 01:01:33;;;;;;;18.87;12.70;;;;;;;;;;524829;28;1201;-61
2022/12/01 01:01:49;;;;;;;18.70;12.65;;;;;;;;;;524565;28;1066;-61
2022/12/01 01:02:06;;;;;;;18.35;12.70;;;;;;;;;;523154;28;1393;-61
2022/12/01 01:02:21;;;;;;;18.88;12.75;;;;;;;;;;525362;28;1196;-61
2022/12/01 01:02:38;;;;;;;19.98;12.93;;;;;;;;;;522877;28;1208;-61
2022/12/01 01:02:54;;;;;;;19.27;12.85;;;;;;;;;;520028;28;1266;-61
2022/12/01 01:03:10;;;;;;;19.43;13.20;;;;;;;;;;516996;28;1449;-61
2022/12/01 01:03:26;;;;;;;19.90;13.60;;;;;;;;;;518134;28;1080;-61
2022/12/01 01:03:41;;;;;;;20.10;13.35;;;;;;;;;;518647;28;1150;-61
2022/12/01 01:03:57;;;;;;;19.23;13.00;;;;;;;;;;517592;28;1147;-61
2022/12/01 01:04:12;;;;;;;19.03;12.80;;;;;;;;;;517411;28;1280;-61
2022/12/01 01:04:32;;;;;;;18.40;12.48;;;;;;;;;;519737;28;1056;-61
2022/12/01 01:04:47;;;;;;;18.05;12.38;;;;;;;;;;520223;28;1070;-61
2022/12/01 01:05:02;;;;;;;17.73;12.23;;;;;;;;;;522782;28;1174;-61
2022/12/01 01:05:18;;;;;;;18.10;12.20;;;;;;;;;;522953;28;1267;-61
2022/12/01 01:05:37;;;;;;;18.13;12.13;;;;;;;;;;522381;28;1264;-61
2022/12/01 01:05:53;;;;;;;18.63;12.25;;;;;;;;;;522722;28;1178;-61
2022/12/01 01:06:10;;;;;;;18.73;12.63;;;;;;;;;;521954;28;1327;-61
2022/12/01 01:06:26;;;;;;;19.33;12.98;;;;;;;;;;522874;28;1253;-61
2022/12/01 01:06:42;;;;;;;19.80;13.13;;;;;;;;;;523110;28;1148;-61
2022/12/01 01:06:57;;;;;;;19.35;12.70;;;;;;;;;;520659;28;1156;-61
2022/12/01 01:07:12;;;;;;;18.73;12.50;;;;;;;;;;522139;28;1325;-61
2022/12/01 01:07:29;;;;;;;19.27;12.60;;;;;;;;;;522094;28;1738;-61
2022/12/01 01:07:44;;;;;;;20.20;12.70;;;;;;;;;;522766;28;1017;-61
2022/12/01 01:08:00;;;;;;;20.43;13.07;;;;;;;;;;518879;28;1399;-61
2022/12/01 01:08:15;;;;;;;19.27;12.93;;;;;;;;;;521086;28;1042;-61
2022/12/01 01:08:30;;;;;;;19.25;12.80;;;;;;;;;;521199;28;1162;-61
2022/12/01 01:08:45;;;;;;;20.20;13.07;;;;;;;;;;521011;28;1493;-61
2022/12/01 01:09:01;;;;;;;18.67;12.33;;;;;;;;;;521073;28;1277;-61
2022/12/01 01:09:16;;;;;;;17.67;12.05;;;;;;;;;;519359;28;1034;-61
2022/12/01 01:09:32;;;;;;;18.20;12.20;;;;;;;;;;518925;28;1138;-61
2022/12/01 01:09:47;;;;;;;17.35;11.93;;;;;;;;;;520778;28;1158;-61
2022/12/01 01:10:03;;;;;;;16.97;11.87;;;;;;;;;;519219;28;1914;-61
2022/12/01 01:10:18;;;;;;;17.98;12.07;;;;;;;;;;520493;28;1182;-61
2022/12/01 01:10:41;;;;;;;17.67;12.17;;;;;;;;;;517185;28;1095;-61
2022/12/01 01:10:58;;;;;;;17.35;12.25;;;;;;;;;;521279;28;1423;-61
2022/12/01 01:11:13;;;;;;;17.05;11.85;;;;;;;;;;521489;28;1291;-61
2022/12/01 01:11:29;;;;;;;17.27;11.83;;;;;;;;;;522548;28;1357;-61
2022/12/01 01:11:44;;;;;;;18.17;11.80;;;;;;;;;;519879;28;1254;-61
2022/12/01 01:11:59;;;;;;;17.90;11.60;;;;;;;;;;521065;28;1168;-61
2022/12/01 01:12:14;;;;;;;17.40;11.67;;;;;;;;;;516287;28;1532;-61
2022/12/01 01:12:30;;;;;;;17.83;11.70;;;;;;;;;;514702;28;1332;-61
2022/12/01 01:12:45;;;;;;;17.97;12.10;;;;;;;;;;518557;28;1153;-61
2022/12/01 01:13:00;;;;;;;18.23;12.70;;;;;;;;;;517642;28;1269;-61
2022/12/01 01:13:16;;;;;;;17.27;12.33;;;;;;;;;;517147;28;1194;-61
2022/12/01 01:13:32;;;;;;;16.45;12.00;;;;;;;;;;518817;28;1098;-61
2022/12/01 01:13:47;;;;;;;16.25;11.70;;;;;;;;;;517894;28;1327;-61
2022/12/01 01:14:03;;;;;;;15.93;11.37;;;;;;;;;;521297;28;1089;-62
2022/12/01 01:14:19;;;;;;;17.75;11.80;;;;;;;;;;522868;28;1145;-61
2022/12/01 01:14:34;;;;;;;18.95;12.00;;;;;;;;;;525857;28;1078;-61
2022/12/01 01:14:50;;;;;;;17.45;11.88;;;;;;;;;;520410;28;1384;-61
2022/12/01 01:15:06;;;;;;;17.17;12.03;;;;;;;;;;522645;28;1153;-61
2022/12/01 01:15:21;;;;;;;18.98;12.30;;;;;;;;;;521116;28;1337;-61
2022/12/01 01:15:37;;;;;;;18.17;11.93;;;;;;;;;;522108;28;1096;-61
2022/12/01 01:15:58;;;;;;;17.77;11.63;;;;;;;;;;520747;28;1244;-61
2022/12/01 01:16:18;;;;;;;17.88;11.80;;;;;;;;;;521802;28;1046;-61
2022/12/01 01:16:34;;;;;;;18.40;11.88;;;;;;;;;;520244;28;1254;-61
2022/12/01 01:16:49;;;;;;;17.90;12.10;;;;;;;;;;518836;28;1181;-61
2022/12/01 01:17:04;;;;;;;18.70;12.00;;;;;;;;;;519801;28;1229;-61
2022/12/01 01:17:19;;;;;;;17.38;11.90;;;;;;;;;;521228;28;1201;-61
2022/12/01 01:17:35;;;;;;;18.20;12.00;;;;;;;;;;518295;28;1301;-61
2022/12/01 01:17:50;;;;;;;18.60;12.00;;;;;;;;;;517689;28;1209;-61
2022/12/01 01:18:06;;;;;;;18.27;12.23;;;;;;;;;;519704;28;1212;-61
2022/12/01 01:18:21;;;;;;;18.03;12.10;;;;;;;;;;518919;28;1318;-61
2022/12/01 01:18:36;;;;;;;16.67;11.40;;;;;;;;;;519176;28;1153;-61
2022/12/01 01:18:52;;;;;;;16.67;11.37;;;;;;;;;;521676;28;1137;-61
2022/12/01 01:19:07;;;;;;;17.83;11.73;;;;;;;;;;520895;28;1154;-61
2022/12/01 01:19:22;;;;;;;18.40;12.40;;;;;;;;;;519911;28;1396;-61
2022/12/01 01:19:38;;;;;;;18.15;12.75;;;;;;;;;;521566;28;1002;-61
2022/12/01 01:19:53;;;;;;;17.07;12.07;;;;;;;;;;520239;28;1178;-61
2022/12/01 01:20:09;;;;;;;16.70;11.55;;;;;;;;;;519234;28;1239;-61
2022/12/01 01:20:24;;;;;;;17.83;11.60;;;;;;;;;;519050;28;1082;-62
2022/12/01 01:20:39;;;;;;;18.20;11.93;;;;;;;;;;519211;28;1162;-61
2022/12/01 01:20:59;;;;;;;17.27;11.97;;;;;;;;;;521344;28;1039;-61
2022/12/01 01:21:16;;;;;;;18.45;11.98;;;;;;;;;;520198;28;1335;-61
2022/12/01 01:21:32;;;;;;;19.42;12.50;;;;;;;;;;523501;28;1316;-61
2022/12/01 01:21:47;;;;;;;18.63;12.17;;;;;;;;;;522370;28;1098;-61
2022/12/01 01:22:03;;;;;;;17.55;11.60;;;;;;;;;;523160;28;1294;-61
2022/12/01 01:22:18;;;;;;;15.98;11.73;;;;;;;;;;520858;28;1196;-61
2022/12/01 01:22:34;;;;;;;16.50;11.73;;;;;;;;;;523316;28;1263;-61
2022/12/01 01:22:49;;;;;;;16.92;11.60;;;;;;;;;;523295;28;1029;-61
2022/12/01 01:23:04;;;;;;;17.67;11.80;;;;;;;;;;521456;28;1553;-61
2022/12/01 01:23:20;;;;;;;18.30;11.80;;;;;;;;;;520673;28;1206;-61
2022/12/01 01:23:35;;;;;;;17.37;11.43;;;;;;;;;;518371;28;1253;-62
2022/12/01 01:23:51;;;;;;;16.43;11.40;;;;;;;;;;519473;28;1201;-61
2022/12/01 01:24:07;;;;;;;16.58;11.20;;;;;;;;;;521973;28;1168;-61
2022/12/01 01:24:22;;;;;;;17.75;11.43;;;;;;;;;;522347;28;1209;-61
2022/12/01 01:24:37;;;;;;;17.60;11.33;;;;;;;;;;520704;28;1198;-61
2022/12/01 01:24:52;;;;;;;17.20;11.63;;;;;;;;;;518938;28;1353;-61
2022/12/01 01:25:08;;;;;;;17.80;11.87;;;;;;;;;;522289;28;1278;-61
2022/12/01 01:25:23;;;;;;;17.80;11.87;;;;;;;;;;521797;28;1229;-61
2022/12/01 01:25:38;;;;;;;17.80;12.10;;;;;;;;;;522760;28;1020;-61
2022/12/01 01:26:03;;;;;;;18.60;11.97;;;;;;;;;;524154;28;1129;-61
2022/12/01 01:26:25;;;;;;;17.65;12.43;;;;;;;;;;522980;28;1121;-61
2022/12/01 01:26:40;;;;;;;18.92;12.23;;;;;;;;;;522207;28;1012;-61
2022/12/01 01:26:56;;;;;;;17.48;11.93;;;;;;;;;;523318;28;1228;-61
2022/12/01 01:27:11;;;;;;;16.67;11.90;;;;;;;;;;521032;28;1242;-61
2022/12/01 01:27:26;;;;;;;17.00;12.20;;;;;;;;;;519611;28;1161;-61
2022/12/01 01:27:41;;;;;;;16.87;12.07;;;;;;;;;;520445;28;975;-61
2022/12/01 01:27:57;;;;;;;17.05;12.05;;;;;;;;;;522884;28;1376;-61
2022/12/01 01:28:12;;;;;;;18.13;12.23;;;;;;;;;;523305;28;1130;-61
2022/12/01 01:28:29;;;;;;;18.63;12.43;;;;;;;;;;523605;28;1200;-61
2022/12/01 01:28:46;;;;;;;18.27;12.10;;;;;;;;;;521610;28;1208;-61
2022/12/01 01:29:03;;;;;;;17.40;11.98;;;;;;;;;;521806;28;1369;-61
2022/12/01 01:29:18;;;;;;;16.25;11.57;;;;;;;;;;521819;28;1094;-61
2022/12/01 01:29:33;;;;;;;16.90;11.53;;;;;;;;;;518995;28;1341;-61
2022/12/01 01:29:49;;;;;;;16.38;11.70;;;;;;;;;;520961;28;1392;-61
2022/12/01 01:30:05;;;;;;;16.53;11.97;;;;;;;;;;523187;28;1934;-61
2022/12/01 01:30:20;;;;;;;17.67;12.40;;;;;;;;;;524125;28;1248;-61
2022/12/01 01:30:38;;;;;;;17.93;12.67;;;;;;;;;;523768;28;1133;-61
2022/12/01 01:30:53;;;;;;;17.60;12.35;;;;;;;;;;522530;28;1102;-61
2022/12/01 01:31:11;;;;;;;17.08;12.10;;;;;;;;;;524779;28;1056;-61
2022/12/01 01:31:29;;;;;;;17.15;11.80;;;;;;;;;;525124;28;1086;-61
2022/12/01 01:31:44;;;;;;;18.67;12.02;;;;;;;;;;524005;28;1216;-61
2022/12/01 01:32:00;;;;;;;18.07;12.00;;;;;;;;;;525235;28;1381;-61
2022/12/01 01:32:15;;;;;;;17.17;11.63;;;;;;;;;;524787;28;1092;-61
2022/12/01 01:32:30;;;;;;;19.10;12.07;;;;;;;;;;526245;27;1141;-61
2022/12/01 01:32:46;;;;;;;19.73;12.60;;;;;;;;;;523521;28;1070;-61
2022/12/01 01:33:01;;;;;;;18.50;12.60;;;;;;;;;;525414;28;1141;-61
2022/12/01 01:33:16;;;;;;;17.80;12.32;;;;;;;;;;525829;28;1265;-61
2022/12/01 01:33:32;;;;;;;18.80;12.63;;;;;;;;;;524134;28;1085;-61
2022/12/01 01:33:47;;;;;;;19.53;12.73;;;;;;;;;;523543;28;1646;-61
2022/12/01 01:34:03;;;;;;;18.73;12.63;;;;;;;;;;523253;28;1166;-61
2022/12/01 01:34:18;;;;;;;17.90;12.17;;;;;;;;;;525014;28;1831;-61
2022/12/01 01:34:33;;;;;;;17.98;11.93;;;;;;;;;;525368;28;1121;-61
2022/12/01 01:34:48;;;;;;;17.77;12.30;;;;;;;;;;525336;27;1086;-61
2022/12/01 01:35:04;;;;;;;17.27;12.20;;;;;;;;;;523443;28;1180;-61
2022/12/01 01:35:20;;;;;;;17.50;11.82;;;;;;;;;;518113;28;1364;-61
2022/12/01 01:35:35;;;;;;;16.90;11.80;;;;;;;;;;519278;28;1252;-62
2022/12/01 01:35:50;;;;;;;16.23;11.82;;;;;;;;;;519970;28;1033;-61
2022/12/01 01:36:06;;;;;;;15.97;11.67;;;;;;;;;;519932;28;1146;-61
2022/12/01 01:36:22;;;;;;;16.70;11.82;;;;;;;;;;520703;28;1142;-61
2022/12/01 01:36:38;;;;;;;16.65;11.80;;;;;;;;;;519377;28;1208;-61
2022/12/01 01:36:53;;;;;;;17.87;11.80;;;;;;;;;;520504;28;1031;-61